Heerenveen, Netherlands
Current Conditions -  °F | °C
As of 5:25 PM on Sunday 25 Jan 2015 (Local Time) from EHLW Reporting Station
Haze Haze  
Wind Chill: 36°   Ceiling: 6200
Heat Index: 39°   Visibility: 4mi
Dew Point: 39°   Wind: 5mph
Humidity: 100%   Direction: 200°SSW
Pressure: 30.27"   Gusts: NA
Location:  52.96°N, 5.92°E
Report Text: EHLW 251625Z AUTO 20004KT 6000 BR OVC062 04/04 Q1025 WHT
Loading
Personal Weather Stations






























Interactive Weather Map New forecast layout! Learn more

10-Day Weather Forecast

Advertisements
Track Severe Weather on mobile